Weather

DAILY 7 DAY TOTAL
onrain

Note: Some stations are located near irrigated fields and may also report irrigation

Alliston Mount Forest Blyth Guelph Grand Bend Strathroy Woodstock Belmont Simcoe Leamington Chatham West Lorne






West Lorne - Historical Weather Data
Date Max Temp (°C) Min Temp (°C) Avg Temp (°C) Rain (mm) 7Day Rain(mm) Total Rain(mm) Avg RH (%)
5/27/2020 26.8 19.1 22.1 0.0 1.8 54.2 83.2
5/26/2020 29.3 16.5 23.5 0.0 1.8 54.2 84.6
5/25/2020 28.9 17.2 23.8 0.0 1.8 54.2 81.9
5/24/2020 27.0 13.9 20.2 0.0 15.0 54.2 89.3
5/23/2020 22.8 13.7 17.1 0.0 19.8 54.2 94.7
5/22/2020 21.7 9.5 15.3 1.8 19.8 54.2 92.6
5/21/2020 21.2 8.4 15.0 0.0 33.0 52.4 70.5
5/20/2020 19.8 8.9 14.4 0.0 42.2 52.4 60.4
5/19/2020 21.5 12.3 15.8 0.0 42.2 52.4 86.1
5/18/2020 14.0 11.3 12.7 13.2 42.2 52.4 99.9
5/17/2020 17.7 9.7 12.6 4.8 33.0 39.2 92.1
5/16/2020 18.3 8.2 13.0 0.0 32.6 34.4 92.0
5/15/2020 21.4 10.0 16.0 15.0 32.6 34.4 97.7
5/14/2020 14.7 3.6 9.4 9.2 17.6 19.4 87.9
5/13/2020 11.7 -4.1 4.8 0.0 8.4 10.2 74.6
5/12/2020 13.4 -3.1 4.9 0.0 8.4 10.2 74.7
5/11/2020 6.5 0.1 3.3 4.0 8.4 10.2 95.6
5/10/2020 13.5 -1.2 8.0 4.4 4.4 6.2 75.6
5/9/2020 8.0 -4.8 1.7 0.0 0.0 1.8 73.3
5/8/2020 5.4 -2.4 1.8 0.0 0.0 1.8 73.3
5/7/2020 15.7 -0.2 7.6 0.0 1.8 1.8 62.7
5/6/2020 15.4 1.6 7.7 0.0 5.0 1.8 58.2
5/5/2020 12.5 -3.6 4.6 0.0 16.0 1.8 74.3
5/4/2020 9.6 0.8 5.7 0.0 16.0 1.8 79.4
5/3/2020 22.2 7.6 16.1 0.0 16.0 1.8 69.2
5/2/2020 18.7 3.4 12.6 0.0 22.2 1.8 78.2
5/1/2020 14.3 3.9 7.8 1.8 22.2 1.8 90.4